sensor_id;sensor_type;location;lat;lon;timestamp;pressure;altitude;pressure_sealevel;temperature;humidity
78117;BME280;67887;59.082;37.928;2023-03-01T00:01:36;98810.22;;;2.01;43.16
78117;BME280;67887;59.082;37.928;2023-03-01T00:04:02;98808.56;;;1.99;43.31
78117;BME280;67887;59.082;37.928;2023-03-01T00:06:28;98805.19;;;1.97;43.14
78117;BME280;67887;59.082;37.928;2023-03-01T00:08:56;98806.06;;;1.96;43.40
78117;BME280;67887;59.082;37.928;2023-03-01T00:11:28;98801.84;;;1.93;43.77
78117;BME280;67887;59.082;37.928;2023-03-01T00:13:57;98808.75;;;1.91;43.10
78117;BME280;67887;59.082;37.928;2023-03-01T00:16:26;98810.50;;;1.91;43.23
78117;BME280;67887;59.082;37.928;2023-03-01T00:18:56;98807.97;;;1.89;43.41
78117;BME280;67887;59.082;37.928;2023-03-01T00:21:24;98815.69;;;1.89;43.33
78117;BME280;67887;59.082;37.928;2023-03-01T00:23:51;98817.50;;;1.87;43.25
78117;BME280;67887;59.082;37.928;2023-03-01T00:26:18;98805.47;;;1.86;43.42
78117;BME280;67887;59.082;37.928;2023-03-01T00:28:45;98810.66;;;1.84;43.03
78117;BME280;67887;59.082;37.928;2023-03-01T00:31:14;98802.16;;;1.82;43.50
78117;BME280;67887;59.082;37.928;2023-03-01T00:33:41;98803.03;;;1.81;43.52
78117;BME280;67887;59.082;37.928;2023-03-01T00:36:07;98812.53;;;1.79;43.59
78117;BME280;67887;59.082;37.928;2023-03-01T00:38:38;98816.88;;;1.77;43.43
78117;BME280;67887;59.082;37.928;2023-03-01T00:41:08;98818.66;;;1.75;43.40
78117;BME280;67887;59.082;37.928;2023-03-01T00:43:35;98822.13;;;1.74;43.54
78117;BME280;67887;59.082;37.928;2023-03-01T00:46:09;98819.56;;;1.73;43.17
78117;BME280;67887;59.082;37.928;2023-03-01T00:48:36;98817.94;;;1.70;43.43
78117;BME280;67887;59.082;37.928;2023-03-01T00:51:14;98822.25;;;1.70;43.86
78117;BME280;67887;59.082;37.928;2023-03-01T00:53:42;98821.47;;;1.66;43.53
78117;BME280;67887;59.082;37.928;2023-03-01T00:56:10;98822.41;;;1.63;43.78
78117;BME280;67887;59.082;37.928;2023-03-01T00:58:37;98826.75;;;1.61;43.37
78117;BME280;67887;59.082;37.928;2023-03-01T01:01:18;98816.53;;;1.58;44.20
78117;BME280;67887;59.082;37.928;2023-03-01T01:03:55;98819.16;;;1.55;43.45
78117;BME280;67887;59.082;37.928;2023-03-01T01:06:24;98817.50;;;1.54;43.72
78117;BME280;67887;59.082;37.928;2023-03-01T01:08:53;98823.53;;;1.53;43.49
78117;BME280;67887;59.082;37.928;2023-03-01T01:11:21;98826.97;;;1.52;43.54
78117;BME280;67887;59.082;37.928;2023-03-01T01:13:47;98815.03;;;1.50;43.85
78117;BME280;67887;59.082;37.928;2023-03-01T01:16:15;98816.72;;;1.51;43.63
78117;BME280;67887;59.082;37.928;2023-03-01T01:18:41;98827.88;;;1.51;44.28
78117;BME280;67887;59.082;37.928;2023-03-01T01:21:11;98819.38;;;1.48;43.79
78117;BME280;67887;59.082;37.928;2023-03-01T01:23:39;98823.69;;;1.47;43.91
78117;BME280;67887;59.082;37.928;2023-03-01T01:26:08;98828.00;;;1.47;44.05
78117;BME280;67887;59.082;37.928;2023-03-01T01:28:35;98828.91;;;1.44;43.99
78117;BME280;67887;59.082;37.928;2023-03-01T01:31:03;98824.66;;;1.43;43.75
78117;BME280;67887;59.082;37.928;2023-03-01T01:33:29;98827.22;;;1.43;44.07
78117;BME280;67887;59.082;37.928;2023-03-01T01:35:55;98822.97;;;1.42;43.99
78117;BME280;67887;59.082;37.928;2023-03-01T01:38:21;98832.41;;;1.41;43.37
78117;BME280;67887;59.082;37.928;2023-03-01T01:40:48;98821.31;;;1.39;43.29
78117;BME280;67887;59.082;37.928;2023-03-01T01:43:25;98824.75;;;1.40;44.31
78117;BME280;67887;59.082;37.928;2023-03-01T01:45:55;98825.63;;;1.37;43.68
78117;BME280;67887;59.082;37.928;2023-03-01T01:48:24;98820.56;;;1.36;43.82
78117;BME280;67887;59.082;37.928;2023-03-01T01:50:59;98820.59;;;1.33;44.03
78117;BME280;67887;59.082;37.928;2023-03-01T01:53:27;98824.97;;;1.31;44.06
78117;BME280;67887;59.082;37.928;2023-03-01T01:55:57;98825.88;;;1.28;44.13
78117;BME280;67887;59.082;37.928;2023-03-01T01:58:27;98831.91;;;1.27;43.50
78117;BME280;67887;59.082;37.928;2023-03-01T02:00:55;98832.84;;;1.24;44.33
78117;BME280;67887;59.082;37.928;2023-03-01T02:03:25;98831.22;;;1.20;44.07
78117;BME280;67887;59.082;37.928;2023-03-01T02:06:03;98828.69;;;1.19;43.73
78117;BME280;67887;59.082;37.928;2023-03-01T02:08:33;98835.59;;;1.17;44.44
78117;BME280;67887;59.082;37.928;2023-03-01T02:11:01;98832.19;;;1.15;44.11
78117;BME280;67887;59.082;37.928;2023-03-01T02:13:31;98839.09;;;1.14;43.90
78117;BME280;67887;59.082;37.928;2023-03-01T02:15:58;98840.00;;;1.12;43.81
78117;BME280;67887;59.082;37.928;2023-03-01T02:18:25;98836.59;;;1.11;43.85
78117;BME280;67887;59.082;37.928;2023-03-01T02:23:36;98849.53;;;1.08;43.92
78117;BME280;67887;59.082;37.928;2023-03-01T02:26:11;98852.16;;;1.07;44.07
78117;BME280;67887;59.082;37.928;2023-03-01T02:28:40;98845.34;;;1.04;44.13
78117;BME280;67887;59.082;37.928;2023-03-01T02:31:10;98839.34;;;1.03;44.19
78117;BME280;67887;59.082;37.928;2023-03-01T02:34:00;98840.25;;;1.01;44.19
78117;BME280;67887;59.082;37.928;2023-03-01T02:36:36;98844.56;;;1.00;44.27
78117;BME280;67887;59.082;37.928;2023-03-01T02:39:05;98854.09;;;0.97;44.32
78117;BME280;67887;59.082;37.928;2023-03-01T02:41:35;98849.00;;;0.94;44.17
78117;BME280;67887;59.082;37.928;2023-03-01T02:44:03;98849.84;;;0.94;44.47
78117;BME280;67887;59.082;37.928;2023-03-01T02:46:30;98855.06;;;0.91;44.38
78117;BME280;67887;59.082;37.928;2023-03-01T02:48:58;98851.72;;;0.88;44.28
78117;BME280;67887;59.082;37.928;2023-03-01T02:51:45;98844.91;;;0.85;44.43
78117;BME280;67887;59.082;37.928;2023-03-01T02:57:02;98845.84;;;0.82;44.01
78117;BME280;67887;59.082;37.928;2023-03-01T02:59:33;98843.28;;;0.81;44.29
78117;BME280;67887;59.082;37.928;2023-03-01T03:02:07;98850.94;;;0.84;44.32
78117;BME280;67887;59.082;37.928;2023-03-01T03:04:34;98850.16;;;0.80;43.95
78117;BME280;67887;59.082;37.928;2023-03-01T03:07:01;98846.78;;;0.78;44.30
78117;BME280;67887;59.082;37.928;2023-03-01T03:09:27;98846.84;;;0.77;44.03
78117;BME280;67887;59.082;37.928;2023-03-01T03:11:56;98851.22;;;0.72;43.68
78117;BME280;67887;59.082;37.928;2023-03-01T03:14:22;98852.94;;;0.73;44.32
78117;BME280;67887;59.082;37.928;2023-03-01T03:16:50;98851.28;;;0.70;44.02
78117;BME280;67887;59.082;37.928;2023-03-01T03:19:18;98850.47;;;0.68;44.27
78117;BME280;67887;59.082;37.928;2023-03-01T03:21:45;98856.50;;;0.66;44.18
78117;BME280;67887;59.082;37.928;2023-03-01T03:24:11;98849.69;;;0.63;43.77
78117;BME280;67887;59.082;37.928;2023-03-01T03:26:37;98842.97;;;0.57;44.18
78117;BME280;67887;59.082;37.928;2023-03-01T03:29:03;98851.50;;;0.59;44.17
78117;BME280;67887;59.082;37.928;2023-03-01T03:31:30;98853.25;;;0.57;44.03
78117;BME280;67887;59.082;37.928;2023-03-01T03:33:56;98854.16;;;0.56;43.84
78117;BME280;67887;59.082;37.928;2023-03-01T03:36:24;98856.75;;;0.55;44.36
78117;BME280;67887;59.082;37.928;2023-03-01T03:38:51;98854.19;;;0.53;44.24
78117;BME280;67887;59.082;37.928;2023-03-01T03:41:17;98861.91;;;0.53;44.14
78117;BME280;67887;59.082;37.928;2023-03-01T03:43:44;98859.41;;;0.50;44.04
78117;BME280;67887;59.082;37.928;2023-03-01T03:46:11;98849.13;;;0.50;44.16
78117;BME280;67887;59.082;37.928;2023-03-01T03:48:43;98846.59;;;0.47;44.43
78117;BME280;67887;59.082;37.928;2023-03-01T03:51:11;98854.41;;;0.44;44.24
78117;BME280;67887;59.082;37.928;2023-03-01T03:53:38;98863.03;;;0.41;44.26
78117;BME280;67887;59.082;37.928;2023-03-01T03:56:05;98864.75;;;0.41;44.23
78117;BME280;67887;59.082;37.928;2023-03-01T03:58:32;98861.38;;;0.37;44.46
78117;BME280;67887;59.082;37.928;2023-03-01T04:00:59;98865.72;;;0.35;44.71
78117;BME280;67887;59.082;37.928;2023-03-01T04:03:27;98875.16;;;0.35;44.43
78117;BME280;67887;59.082;37.928;2023-03-01T04:05:54;98885.50;;;0.32;44.27
78117;BME280;67887;59.082;37.928;2023-03-01T04:08:23;98894.09;;;0.29;44.41
78117;BME280;67887;59.082;37.928;2023-03-01T04:10:51;98893.31;;;0.27;44.21
78117;BME280;67887;59.082;37.928;2023-03-01T04:13:22;98893.34;;;0.24;44.63
78117;BME280;67887;59.082;37.928;2023-03-01T04:15:52;98882.31;;;0.20;44.29
78117;BME280;67887;59.082;37.928;2023-03-01T04:18:23;98880.63;;;0.18;44.25
78117;BME280;67887;59.082;37.928;2023-03-01T04:20:52;98892.56;;;0.20;44.50
78117;BME280;67887;59.082;37.928;2023-03-01T04:23:21;98890.03;;;0.19;44.50
78117;BME280;67887;59.082;37.928;2023-03-01T04:25:55;98891.78;;;0.17;44.33
78117;BME280;67887;59.082;37.928;2023-03-01T04:28:34;98903.78;;;0.16;44.62
78117;BME280;67887;59.082;37.928;2023-03-01T04:31:07;98902.06;;;0.15;44.41
78117;BME280;67887;59.082;37.928;2023-03-01T04:33:51;98906.38;;;0.13;44.46
78117;BME280;67887;59.082;37.928;2023-03-01T04:36:18;98909.84;;;0.12;44.52
78117;BME280;67887;59.082;37.928;2023-03-01T04:38:45;98904.81;;;0.08;44.50
78117;BME280;67887;59.082;37.928;2023-03-01T04:41:16;98903.91;;;0.09;44.75
78117;BME280;67887;59.082;37.928;2023-03-01T04:43:42;98915.88;;;0.11;44.66
78117;BME280;67887;59.082;37.928;2023-03-01T04:46:11;98915.06;;;0.09;44.56
78117;BME280;67887;59.082;37.928;2023-03-01T04:48:38;98919.28;;;0.12;44.77
78117;BME280;67887;59.082;37.928;2023-03-01T04:51:05;98922.72;;;0.11;44.77
78117;BME280;67887;59.082;37.928;2023-03-01T04:53:34;98920.19;;;0.09;44.82
78117;BME280;67887;59.082;37.928;2023-03-01T04:56:02;98927.09;;;0.06;44.48
78117;BME280;67887;59.082;37.928;2023-03-01T04:58:28;98919.38;;;0.07;44.49
78117;BME280;67887;59.082;37.928;2023-03-01T05:00:54;98913.38;;;0.07;44.84
78117;BME280;67887;59.082;37.928;2023-03-01T05:03:21;98924.50;;;0.07;45.14
78117;BME280;67887;59.082;37.928;2023-03-01T05:05:49;98935.59;;;0.09;44.60
78117;BME280;67887;59.082;37.928;2023-03-01T05:08:16;98937.28;;;0.10;44.59
78117;BME280;67887;59.082;37.928;2023-03-01T05:10:51;98934.69;;;0.12;44.73
78117;BME280;67887;59.082;37.928;2023-03-01T05:13:19;98929.59;;;0.09;44.75
78117;BME280;67887;59.082;37.928;2023-03-01T05:15:54;98936.44;;;0.10;45.00
78117;BME280;67887;59.082;37.928;2023-03-01T05:18:20;98941.56;;;0.11;44.93
78117;BME280;67887;59.082;37.928;2023-03-01T05:20:47;98944.13;;;0.11;44.83
78117;BME280;67887;59.082;37.928;2023-03-01T05:23:13;98935.53;;;0.11;45.39
78117;BME280;67887;59.082;37.928;2023-03-01T05:25:39;98944.06;;;0.14;45.22
78117;BME280;67887;59.082;37.928;2023-03-01T05:28:09;98949.13;;;0.17;45.15
78117;BME280;67887;59.082;37.928;2023-03-01T05:30:36;98955.09;;;0.19;45.22
78117;BME280;67887;59.082;37.928;2023-03-01T05:33:04;98948.22;;;0.20;45.12
78117;BME280;67887;59.082;37.928;2023-03-01T05:35:32;98943.13;;;0.18;45.36
78117;BME280;67887;59.082;37.928;2023-03-01T05:37:59;98935.38;;;0.20;45.34
78117;BME280;67887;59.082;37.928;2023-03-01T05:40:25;98937.00;;;0.24;45.01
78117;BME280;67887;59.082;37.928;2023-03-01T05:42:55;98940.41;;;0.25;45.36
78117;BME280;67887;59.082;37.928;2023-03-01T05:45:24;98940.41;;;0.26;44.74
78117;BME280;67887;59.082;37.928;2023-03-01T05:47:51;98949.03;;;0.24;45.03
78117;BME280;67887;59.082;37.928;2023-03-01T05:50:28;98949.81;;;0.27;45.20
78117;BME280;67887;59.082;37.928;2023-03-01T05:55:24;98947.25;;;0.27;45.12
78117;BME280;67887;59.082;37.928;2023-03-01T05:57:50;98961.78;;;0.28;44.86
78117;BME280;67887;59.082;37.928;2023-03-01T06:00:19;98970.28;;;0.32;45.18
78117;BME280;67887;59.082;37.928;2023-03-01T06:02:45;98968.56;;;0.32;45.43
78117;BME280;67887;59.082;37.928;2023-03-01T06:05:13;98965.91;;;0.35;45.01
78117;BME280;67887;59.082;37.928;2023-03-01T06:07:40;98971.94;;;0.34;45.03
78117;BME280;67887;59.082;37.928;2023-03-01T06:10:07;98977.84;;;0.38;45.24
78117;BME280;67887;59.082;37.928;2023-03-01T06:12:35;98976.94;;;0.42;45.20
78117;BME280;67887;59.082;37.928;2023-03-01T06:15:02;98976.06;;;0.43;45.44
78117;BME280;67887;59.082;37.928;2023-03-01T06:17:31;98974.31;;;0.45;45.42
78117;BME280;67887;59.082;37.928;2023-03-01T06:19:57;98981.97;;;0.47;45.40
78117;BME280;67887;59.082;37.928;2023-03-01T06:22:24;98979.38;;;0.50;45.24
78117;BME280;67887;59.082;37.928;2023-03-01T06:24:50;98981.88;;;0.51;45.55
78117;BME280;67887;59.082;37.928;2023-03-01T06:27:16;98982.69;;;0.53;45.43
78117;BME280;67887;59.082;37.928;2023-03-01T06:29:42;98968.94;;;0.56;45.51
78117;BME280;67887;59.082;37.928;2023-03-01T06:32:08;98962.97;;;0.54;45.49
78117;BME280;67887;59.082;37.928;2023-03-01T06:34:34;98973.16;;;0.58;45.51
78117;BME280;67887;59.082;37.928;2023-03-01T06:37:00;98961.13;;;0.62;45.69
78117;BME280;67887;59.082;37.928;2023-03-01T06:39:31;98972.22;;;0.64;45.40
78117;BME280;67887;59.082;37.928;2023-03-01T06:41:57;98971.31;;;0.67;45.20
78117;BME280;67887;59.082;37.928;2023-03-01T06:44:23;98975.53;;;0.69;45.88
78117;BME280;67887;59.082;37.928;2023-03-01T06:46:49;98966.97;;;0.69;45.70
78117;BME280;67887;59.082;37.928;2023-03-01T06:49:15;98974.56;;;0.75;45.82
78117;BME280;67887;59.082;37.928;2023-03-01T06:51:43;98986.50;;;0.77;45.78
78117;BME280;67887;59.082;37.928;2023-03-01T06:54:10;98983.06;;;0.78;45.69
78117;BME280;67887;59.082;37.928;2023-03-01T06:56:36;98994.13;;;0.82;45.54
78117;BME280;67887;59.082;37.928;2023-03-01T06:59:02;99008.66;;;0.85;45.32
78117;BME280;67887;59.082;37.928;2023-03-01T07:01:29;99007.72;;;0.87;45.24
78117;BME280;67887;59.082;37.928;2023-03-01T07:03:55;98994.78;;;0.92;45.50
78117;BME280;67887;59.082;37.928;2023-03-01T07:06:22;98988.78;;;0.93;45.34
78117;BME280;67887;59.082;37.928;2023-03-01T07:08:48;99003.25;;;0.97;46.03
78117;BME280;67887;59.082;37.928;2023-03-01T07:11:15;98995.44;;;1.01;45.82
78117;BME280;67887;59.082;37.928;2023-03-01T07:13:42;98988.53;;;1.03;45.73
78117;BME280;67887;59.082;37.928;2023-03-01T07:16:08;98993.53;;;1.10;45.48
78117;BME280;67887;59.082;37.928;2023-03-01T07:18:34;98996.94;;;1.12;45.40
78117;BME280;67887;59.082;37.928;2023-03-01T07:21:07;98986.53;;;1.16;45.60
78117;BME280;67887;59.082;37.928;2023-03-01T07:23:34;98987.34;;;1.18;45.34
78117;BME280;67887;59.082;37.928;2023-03-01T07:26:00;98978.66;;;1.24;46.29
78117;BME280;67887;59.082;37.928;2023-03-01T07:28:27;98982.00;;;1.28;46.03
78117;BME280;67887;59.082;37.928;2023-03-01T07:30:53;98980.22;;;1.31;45.28
78117;BME280;67887;59.082;37.928;2023-03-01T07:33:19;98991.25;;;1.35;45.53
78117;BME280;67887;59.082;37.928;2023-03-01T07:35:45;98987.75;;;1.39;45.71
78117;BME280;67887;59.082;37.928;2023-03-01T07:38:11;98992.88;;;1.40;45.48
78117;BME280;67887;59.082;37.928;2023-03-01T07:40:37;98984.16;;;1.46;45.56
78117;BME280;67887;59.082;37.928;2023-03-01T07:43:03;98974.66;;;1.48;45.48
78117;BME280;67887;59.082;37.928;2023-03-01T07:45:29;98992.53;;;1.56;45.41
78117;BME280;67887;59.082;37.928;2023-03-01T07:47:55;98976.88;;;1.63;45.57
78117;BME280;67887;59.082;37.928;2023-03-01T07:50:22;98975.81;;;1.72;45.46
78117;BME280;67887;59.082;37.928;2023-03-01T07:52:49;98961.97;;;1.76;45.82
78117;BME280;67887;59.082;37.928;2023-03-01T07:55:16;98958.34;;;1.85;45.41
78117;BME280;67887;59.082;37.928;2023-03-01T07:57:42;98967.63;;;1.91;45.55
78117;BME280;67887;59.082;37.928;2023-03-01T08:00:13;98970.09;;;1.95;45.36
78117;BME280;67887;59.082;37.928;2023-03-01T08:02:39;98973.38;;;2.00;44.89
78117;BME280;67887;59.082;37.928;2023-03-01T08:05:08;98960.31;;;2.08;45.26
78117;BME280;67887;59.082;37.928;2023-03-01T08:07:35;98957.63;;;2.13;45.71
78117;BME280;67887;59.082;37.928;2023-03-01T08:10:01;98968.50;;;2.22;45.34
78117;BME280;67887;59.082;37.928;2023-03-01T08:12:28;98970.00;;;2.31;45.74
78117;BME280;67887;59.082;37.928;2023-03-01T08:14:54;98963.78;;;2.38;45.40
78117;BME280;67887;59.082;37.928;2023-03-01T08:17:21;98963.47;;;2.50;45.28
78117;BME280;67887;59.082;37.928;2023-03-01T08:19:47;98952.94;;;2.58;45.57
78117;BME280;67887;59.082;37.928;2023-03-01T08:22:13;98952.72;;;2.66;45.03
78117;BME280;67887;59.082;37.928;2023-03-01T08:24:39;98961.00;;;2.77;44.43
78117;BME280;67887;59.082;37.928;2023-03-01T08:27:05;98956.53;;;2.82;45.18
78117;BME280;67887;59.082;37.928;2023-03-01T08:29:32;98955.47;;;2.89;45.21
78117;BME280;67887;59.082;37.928;2023-03-01T08:31:58;98949.22;;;2.97;44.71
78117;BME280;67887;59.082;37.928;2023-03-01T08:34:25;98943.19;;;2.98;44.73
78117;BME280;67887;59.082;37.928;2023-03-01T08:36:52;98943.06;;;3.02;44.74
78117;BME280;67887;59.082;37.928;2023-03-01T08:39:19;98954.91;;;3.08;44.77
78117;BME280;67887;59.082;37.928;2023-03-01T08:41:46;98943.63;;;3.12;44.83
78117;BME280;67887;59.082;37.928;2023-03-01T08:44:14;98947.75;;;3.18;44.08
78117;BME280;67887;59.082;37.928;2023-03-01T08:46:43;98965.59;;;3.25;44.68
78117;BME280;67887;59.082;37.928;2023-03-01T08:49:14;98954.22;;;3.31;44.10
78117;BME280;67887;59.082;37.928;2023-03-01T08:51:41;98971.22;;;3.38;44.34
78117;BME280;67887;59.082;37.928;2023-03-01T08:54:11;98958.09;;;3.44;44.64
78117;BME280;67887;59.082;37.928;2023-03-01T08:56:37;98961.41;;;3.49;43.98
78117;BME280;67887;59.082;37.928;2023-03-01T08:59:04;98979.34;;;3.54;44.08
78117;BME280;67887;59.082;37.928;2023-03-01T09:01:30;98966.41;;;3.54;44.20
78117;BME280;67887;59.082;37.928;2023-03-01T09:03:56;98959.53;;;3.53;44.10
78117;BME280;67887;59.082;37.928;2023-03-01T09:06:22;98966.31;;;3.57;43.84
78117;BME280;67887;59.082;37.928;2023-03-01T09:08:50;98964.53;;;3.59;43.40
78117;BME280;67887;59.082;37.928;2023-03-01T09:11:18;98962.75;;;3.61;43.37
78117;BME280;67887;59.082;37.928;2023-03-01T09:13:46;98968.69;;;3.63;44.15
78117;BME280;67887;59.082;37.928;2023-03-01T09:16:14;98948.88;;;3.64;43.66
78117;BME280;67887;59.082;37.928;2023-03-01T09:18:42;98958.25;;;3.66;43.98
78117;BME280;67887;59.082;37.928;2023-03-01T09:21:13;98941.00;;;3.67;43.60
78117;BME280;67887;59.082;37.928;2023-03-01T09:23:44;98928.91;;;3.69;43.43
78117;BME280;67887;59.082;37.928;2023-03-01T09:26:16;98928.81;;;3.72;43.49
78117;BME280;67887;59.082;37.928;2023-03-01T09:28:45;98910.50;;;3.78;43.69
78117;BME280;67887;59.082;37.928;2023-03-01T09:31:12;98911.88;;;3.88;43.49
78117;BME280;67887;59.082;37.928;2023-03-01T09:33:40;98895.06;;;4.02;43.71
78117;BME280;67887;59.082;37.928;2023-03-01T09:36:10;98905.44;;;4.25;44.28
78117;BME280;67887;59.082;37.928;2023-03-01T09:38:37;98900.09;;;4.53;44.83
78117;BME280;67887;59.082;37.928;2023-03-01T09:41:10;98893.06;;;4.80;44.27
78117;BME280;67887;59.082;37.928;2023-03-01T09:46:23;98894.84;;;5.45;44.73
78117;BME280;67887;59.082;37.928;2023-03-01T09:49:06;98887.41;;;5.78;44.90
78117;BME280;67887;59.082;37.928;2023-03-01T09:51:36;98892.78;;;5.94;43.82
78117;BME280;67887;59.082;37.928;2023-03-01T09:54:03;98897.75;;;6.00;43.08
78117;BME280;67887;59.082;37.928;2023-03-01T09:56:35;98889.63;;;6.08;42.78
78117;BME280;67887;59.082;37.928;2023-03-01T09:59:20;98890.41;;;6.10;42.66
78117;BME280;67887;59.082;37.928;2023-03-01T10:01:51;98886.06;;;6.10;42.25
78117;BME280;67887;59.082;37.928;2023-03-01T10:05:27;98889.75;;;6.25;42.37
78117;BME280;67887;59.082;37.928;2023-03-01T10:10:29;98894.41;;;6.37;41.73
78117;BME280;67887;59.082;37.928;2023-03-01T10:13:01;98883.09;;;6.38;41.48
78117;BME280;67887;59.082;37.928;2023-03-01T10:15:41;98890.94;;;6.37;41.75
78117;BME280;67887;59.082;37.928;2023-03-01T10:18:16;98899.09;;;6.48;41.83
78117;BME280;67887;59.082;37.928;2023-03-01T10:20:52;98891.97;;;6.72;41.96
78117;BME280;67887;59.082;37.928;2023-03-01T10:23:22;98884.38;;;7.05;41.90
78117;BME280;67887;59.082;37.928;2023-03-01T10:31:05;98905.50;;;7.51;40.82
78117;BME280;67887;59.082;37.928;2023-03-01T10:33:38;98901.88;;;7.73;41.18
78117;BME280;67887;59.082;37.928;2023-03-01T10:36:34;98872.63;;;8.03;40.62
78117;BME280;67887;59.082;37.928;2023-03-01T10:39:12;98878.97;;;8.30;40.98
78117;BME280;67887;59.082;37.928;2023-03-01T10:41:52;98881.19;;;8.38;40.28
78117;BME280;67887;59.082;37.928;2023-03-01T10:44:39;98866.59;;;8.36;39.95
78117;BME280;67887;59.082;37.928;2023-03-01T10:47:23;98873.94;;;8.27;39.01
78117;BME280;67887;59.082;37.928;2023-03-01T10:50:04;98874.03;;;8.26;39.13
78117;BME280;67887;59.082;37.928;2023-03-01T10:52:36;98866.56;;;8.20;39.06
78117;BME280;67887;59.082;37.928;2023-03-01T10:57:49;98865.31;;;8.27;39.40
78117;BME280;67887;59.082;37.928;2023-03-01T11:00:22;98855.78;;;8.43;38.78
78117;BME280;67887;59.082;37.928;2023-03-01T11:05:25;98850.44;;;8.94;38.74
78117;BME280;67887;59.082;37.928;2023-03-01T11:07:54;98873.13;;;9.08;38.14
78117;BME280;67887;59.082;37.928;2023-03-01T11:10:30;98873.63;;;8.99;38.19
78117;BME280;67887;59.082;37.928;2023-03-01T11:13:18;98864.19;;;8.80;37.93
78117;BME280;67887;59.082;37.928;2023-03-01T11:16:05;98874.97;;;8.58;38.27
78117;BME280;67887;59.082;37.928;2023-03-01T11:18:33;98864.31;;;8.29;38.19
78117;BME280;67887;59.082;37.928;2023-03-01T11:21:01;98869.94;;;8.04;37.89
78117;BME280;67887;59.082;37.928;2023-03-01T11:23:29;98861.56;;;7.82;37.75
78117;BME280;67887;59.082;37.928;2023-03-01T11:26:01;98859.13;;;7.61;37.73
78117;BME280;67887;59.082;37.928;2023-03-01T11:28:29;98877.38;;;7.42;38.05
78117;BME280;67887;59.082;37.928;2023-03-01T11:36:08;98854.69;;;6.92;38.06
78117;BME280;67887;59.082;37.928;2023-03-01T11:38:39;98854.50;;;6.78;38.11
78117;BME280;67887;59.082;37.928;2023-03-01T11:41:10;98851.69;;;6.63;38.08
78117;BME280;67887;59.082;37.928;2023-03-01T11:52:03;98859.38;;;6.08;38.42
78117;BME280;67887;59.082;37.928;2023-03-01T12:03:13;98855.81;;;5.70;38.86
78117;BME280;67887;59.082;37.928;2023-03-01T12:19:46;98833.44;;;5.26;39.00
78117;BME280;67887;59.082;37.928;2023-03-01T12:22:32;98824.19;;;5.20;39.08
78117;BME280;67887;59.082;37.928;2023-03-01T12:39:03;98860.22;;;5.05;39.19
78117;BME280;67887;59.082;37.928;2023-03-01T12:41:40;98835.25;;;5.02;39.52
78117;BME280;67887;59.082;37.928;2023-03-01T12:47:26;98833.78;;;4.96;39.82
78117;BME280;67887;59.082;37.928;2023-03-01T12:50:01;98825.28;;;4.93;39.47
78117;BME280;67887;59.082;37.928;2023-03-01T12:52:37;98836.59;;;4.90;39.63
78117;BME280;67887;59.082;37.928;2023-03-01T12:55:16;98838.47;;;4.87;39.87
78117;BME280;67887;59.082;37.928;2023-03-01T12:57:55;98842.91;;;4.83;39.73
78117;BME280;67887;59.082;37.928;2023-03-01T13:06:15;98831.25;;;4.73;40.06
78117;BME280;67887;59.082;37.928;2023-03-01T13:11:21;98817.72;;;4.66;39.85
78117;BME280;67887;59.082;37.928;2023-03-01T13:13:48;98816.94;;;4.64;40.17
78117;BME280;67887;59.082;37.928;2023-03-01T13:16:39;98814.53;;;4.59;39.73
78117;BME280;67887;59.082;37.928;2023-03-01T13:19:16;98816.38;;;4.56;39.75
78117;BME280;67887;59.082;37.928;2023-03-01T13:21:42;98830.25;;;4.53;40.21
78117;BME280;67887;59.082;37.928;2023-03-01T13:24:35;98821.66;;;4.53;40.30
78117;BME280;67887;59.082;37.928;2023-03-01T13:30:01;98813.16;;;4.49;40.04
78117;BME280;67887;59.082;37.928;2023-03-01T13:32:40;98799.44;;;4.47;40.04
78117;BME280;67887;59.082;37.928;2023-03-01T13:37:43;98809.00;;;4.45;40.16
78117;BME280;67887;59.082;37.928;2023-03-01T13:42:46;98802.22;;;4.43;40.41
78117;BME280;67887;59.082;37.928;2023-03-01T13:45:36;98808.31;;;4.42;39.98
78117;BME280;67887;59.082;37.928;2023-03-01T13:50:53;98805.94;;;4.35;40.25
78117;BME280;67887;59.082;37.928;2023-03-01T13:53:23;98797.44;;;4.32;40.08
78117;BME280;67887;59.082;37.928;2023-03-01T13:56:16;98804.41;;;4.30;40.45
78117;BME280;67887;59.082;37.928;2023-03-01T13:59:03;98821.72;;;4.28;40.58
78117;BME280;67887;59.082;37.928;2023-03-01T14:01:33;98789.94;;;4.26;40.19
78117;BME280;67887;59.082;37.928;2023-03-01T14:04:01;98804.66;;;4.24;40.59
78117;BME280;67887;59.082;37.928;2023-03-01T14:06:30;98793.53;;;4.22;40.59
78117;BME280;67887;59.082;37.928;2023-03-01T14:09:01;98792.69;;;4.21;40.36
78117;BME280;67887;59.082;37.928;2023-03-01T14:19:33;98793.09;;;4.10;41.16
78117;BME280;67887;59.082;37.928;2023-03-01T14:25:02;98813.88;;;4.07;41.08
78117;BME280;67887;59.082;37.928;2023-03-01T14:27:33;98817.38;;;4.06;40.91
78117;BME280;67887;59.082;37.928;2023-03-01T14:30:09;98795.06;;;4.04;40.95
78117;BME280;67887;59.082;37.928;2023-03-01T14:32:38;98794.31;;;4.00;40.66
78117;BME280;67887;59.082;37.928;2023-03-01T14:35:34;98805.56;;;3.99;40.63
78117;BME280;67887;59.082;37.928;2023-03-01T14:38:03;98794.53;;;3.94;40.72
78117;BME280;67887;59.082;37.928;2023-03-01T14:40:33;98801.53;;;3.92;41.07
78117;BME280;67887;59.082;37.928;2023-03-01T14:43:02;98799.81;;;3.91;40.78
78117;BME280;67887;59.082;37.928;2023-03-01T14:45:35;98807.63;;;3.89;40.85
78117;BME280;67887;59.082;37.928;2023-03-01T14:48:03;98792.25;;;3.86;40.95
78117;BME280;67887;59.082;37.928;2023-03-01T14:50:30;98804.19;;;3.89;40.82
78117;BME280;67887;59.082;37.928;2023-03-01T14:52:59;98797.44;;;3.85;41.42
78117;BME280;67887;59.082;37.928;2023-03-01T14:55:30;98793.25;;;3.82;41.14
78117;BME280;67887;59.082;37.928;2023-03-01T14:57:57;98795.94;;;3.79;41.01
78117;BME280;67887;59.082;37.928;2023-03-01T15:00:27;98789.03;;;3.80;41.67
78117;BME280;67887;59.082;37.928;2023-03-01T15:02:56;98803.81;;;3.76;41.74